Not for real navigation | The accuracy of this data is not assured | See disclaimer for more information
ICAO NAME COUNTRY WIND Kt GUST Kt VIS TEMP/DEW BARO
FYGB 4 0 9999 17/0 30.86
FYGB 261600Z AUTO 18004KT //// // ////// 17/M00 Q1045
SLLP La Paz / Alto Bolivia 3 0 9999 12/-12 30.80
SLLP 261600Z 18003KT 9999 NSC 12/M12 Q1043
SPJL Juliaca Peru 3 0 9999 11/-13 30.74
SPJL 261600Z 29003KT CAVOK 11/M13 Q1041 RMK PP000
EIDL 8 0 9999 14/9 30.65
EIDL 261600Z 29008KT CAVOK 14/09 Q1038
EISG 7 0 9999 14/7 30.65
EISG 261600Z 34007KT 9999 FEW040 14/07 Q1038

Show more